JBU1825 KFLL-SPJC
Flight info
| Callsign | JBU1825 |
|---|---|
| Flight time | N/A |
| Altitude | 33000 |
| Route | REGAE2 URSUS UL780 LEPEG/N0466F350 UL780 TORIL/N0460F370 UL780 TRU UV1 ATATU |
| Aircraft | A21N/M-SDE2E3FGHIRWXY/LB1 |
Departure
| Time | N/A |
|---|---|
| Airport | Fort Lauderdale Hollywood International Airport (KFLL) |
Arrival
| Time | 2026-05-03 23:31 |
|---|---|
| Airport | Jorge Chávez International Airport (SPJC) |
| Time | Latitude | Longitude | Altitude | Speed | Heading |
|---|---|---|---|---|---|
| 2026-05-03 20:15 | 10.24597 | -79.51072 | 36873 ft | 456 kts | 181° |
| 2026-05-03 20:15 | 10.18276 | -79.51296 | 36875 ft | 456 kts | 181° |
| 2026-05-03 20:16 | 10.12017 | -79.51516 | 36874 ft | 457 kts | 181° |
| 2026-05-03 20:16 | 10.05899 | -79.51733 | 36874 ft | 457 kts | 181° |
| 2026-05-03 20:17 | 9.99948 | -79.51943 | 36873 ft | 457 kts | 181° |
| 2026-05-03 20:17 | 9.94085 | -79.52150 | 36875 ft | 457 kts | 181° |
| 2026-05-03 20:18 | 9.88311 | -79.52354 | 36869 ft | 457 kts | 181° |
| 2026-05-03 20:18 | 9.82614 | -79.52554 | 36871 ft | 457 kts | 181° |
| 2026-05-03 20:19 | 9.76948 | -79.52755 | 36871 ft | 457 kts | 181° |
| 2026-05-03 20:19 | 9.71145 | -79.52959 | 36872 ft | 458 kts | 181° |
| 2026-05-03 20:20 | 9.65402 | -79.53162 | 36868 ft | 458 kts | 181° |
| 2026-05-03 20:20 | 9.59611 | -79.53366 | 36876 ft | 458 kts | 181° |
| 2026-05-03 20:21 | 9.53897 | -79.53567 | 36882 ft | 458 kts | 181° |
| 2026-05-03 20:21 | 9.48078 | -79.53773 | 36884 ft | 459 kts | 181° |
| 2026-05-03 20:22 | 9.42338 | -79.53975 | 36889 ft | 458 kts | 181° |
| 2026-05-03 20:22 | 9.36445 | -79.54183 | 36891 ft | 459 kts | 181° |
| 2026-05-03 20:23 | 9.30601 | -79.54389 | 36893 ft | 458 kts | 181° |
| 2026-05-03 20:23 | 9.24623 | -79.54599 | 36898 ft | 458 kts | 181° |
| 2026-05-03 20:24 | 9.18465 | -79.54816 | 36904 ft | 458 kts | 181° |
| 2026-05-03 20:24 | 9.12316 | -79.55033 | 36902 ft | 458 kts | 181° |
| 2026-05-03 20:25 | 9.06217 | -79.55247 | 36898 ft | 457 kts | 181° |
| 2026-05-03 20:25 | 9.00048 | -79.55463 | 36895 ft | 458 kts | 181° |
| 2026-05-03 20:26 | 8.93892 | -79.55679 | 36893 ft | 459 kts | 181° |
| 2026-05-03 20:26 | 8.87679 | -79.55896 | 36892 ft | 458 kts | 181° |
| 2026-05-03 20:27 | 8.81391 | -79.56117 | 36887 ft | 458 kts | 181° |
| 2026-05-03 20:27 | 8.75043 | -79.56329 | 36885 ft | 458 kts | 181° |
| 2026-05-03 20:28 | 8.68711 | -79.56516 | 36879 ft | 458 kts | 181° |
| 2026-05-03 20:28 | 8.62330 | -79.56705 | 36870 ft | 458 kts | 181° |
| 2026-05-03 20:29 | 8.55947 | -79.56894 | 36864 ft | 458 kts | 181° |
| 2026-05-03 20:29 | 8.49559 | -79.57082 | 36860 ft | 458 kts | 181° |
| 2026-05-03 20:30 | 8.43187 | -79.57272 | 36860 ft | 458 kts | 181° |
| 2026-05-03 20:30 | 8.36806 | -79.57462 | 36858 ft | 458 kts | 181° |
| 2026-05-03 20:31 | 8.30448 | -79.57650 | 36860 ft | 458 kts | 181° |
| 2026-05-03 20:31 | 8.24085 | -79.57838 | 36858 ft | 458 kts | 181° |
| 2026-05-03 20:32 | 8.17748 | -79.58026 | 36858 ft | 458 kts | 181° |
| 2026-05-03 20:32 | 8.11351 | -79.58215 | 36856 ft | 458 kts | 181° |
| 2026-05-03 20:33 | 8.04977 | -79.58405 | 36857 ft | 458 kts | 181° |
| 2026-05-03 20:33 | 7.98622 | -79.58592 | 36855 ft | 458 kts | 181° |
| 2026-05-03 20:34 | 7.92248 | -79.58781 | 36853 ft | 458 kts | 181° |
| 2026-05-03 20:34 | 7.85870 | -79.58971 | 36853 ft | 457 kts | 181° |
| 2026-05-03 20:35 | 7.79543 | -79.59158 | 36852 ft | 456 kts | 181° |
| 2026-05-03 20:35 | 7.73211 | -79.59344 | 36855 ft | 457 kts | 181° |
| 2026-05-03 20:36 | 7.66835 | -79.59532 | 36854 ft | 457 kts | 181° |
| 2026-05-03 20:36 | 7.60472 | -79.59721 | 36853 ft | 457 kts | 181° |
| 2026-05-03 20:37 | 7.54081 | -79.59909 | 36855 ft | 457 kts | 181° |
| 2026-05-03 20:37 | 7.47715 | -79.60097 | 36852 ft | 456 kts | 181° |
| 2026-05-03 20:38 | 7.41359 | -79.60283 | 36854 ft | 456 kts | 181° |
| 2026-05-03 20:38 | 7.35016 | -79.60470 | 36852 ft | 456 kts | 181° |
| 2026-05-03 20:39 | 7.28676 | -79.60656 | 36855 ft | 455 kts | 181° |
| 2026-05-03 20:39 | 7.22355 | -79.60839 | 36866 ft | 455 kts | 181° |
| 2026-05-03 20:40 | 7.16033 | -79.61020 | 36871 ft | 455 kts | 181° |
| 2026-05-03 20:40 | 7.09706 | -79.61199 | 36874 ft | 454 kts | 181° |
| 2026-05-03 20:41 | 7.03395 | -79.61378 | 36875 ft | 453 kts | 181° |
| 2026-05-03 20:41 | 6.97111 | -79.61556 | 36877 ft | 454 kts | 180° |
| 2026-05-03 20:42 | 6.90765 | -79.61736 | 36874 ft | 454 kts | 181° |
| 2026-05-03 20:42 | 6.84438 | -79.61914 | 36869 ft | 454 kts | 180° |
| 2026-05-03 20:43 | 6.78086 | -79.62095 | 36864 ft | 454 kts | 181° |
| 2026-05-03 20:43 | 6.71795 | -79.62273 | 36859 ft | 454 kts | 181° |
| 2026-05-03 20:44 | 6.65431 | -79.62453 | 36854 ft | 454 kts | 180° |
| 2026-05-03 20:44 | 6.59119 | -79.62633 | 36855 ft | 454 kts | 180° |
| 2026-05-03 20:45 | 6.52758 | -79.62812 | 36853 ft | 453 kts | 180° |
| 2026-05-03 20:45 | 6.46435 | -79.62991 | 36854 ft | 454 kts | 180° |
| 2026-05-03 20:46 | 6.40097 | -79.63170 | 36854 ft | 454 kts | 180° |
| 2026-05-03 20:46 | 6.33786 | -79.63348 | 36854 ft | 455 kts | 180° |
| 2026-05-03 20:47 | 6.27394 | -79.63528 | 36854 ft | 455 kts | 180° |
| 2026-05-03 20:47 | 6.21068 | -79.63708 | 36854 ft | 455 kts | 180° |
| 2026-05-03 20:48 | 6.14697 | -79.63887 | 36856 ft | 454 kts | 180° |
| 2026-05-03 20:48 | 6.08351 | -79.64067 | 36856 ft | 454 kts | 180° |
| 2026-05-03 20:49 | 6.02005 | -79.64246 | 36854 ft | 454 kts | 180° |
| 2026-05-03 20:49 | 5.95661 | -79.64424 | 36855 ft | 455 kts | 180° |
| 2026-05-03 20:50 | 5.89316 | -79.64603 | 36856 ft | 456 kts | 180° |
| 2026-05-03 20:50 | 5.82960 | -79.64783 | 36854 ft | 456 kts | 180° |
| 2026-05-03 20:51 | 5.76592 | -79.64963 | 36856 ft | 457 kts | 180° |
| 2026-05-03 20:51 | 5.70210 | -79.65142 | 36854 ft | 456 kts | 180° |
| 2026-05-03 20:52 | 5.63841 | -79.65322 | 36857 ft | 456 kts | 180° |
| 2026-05-03 20:52 | 5.57483 | -79.65501 | 36855 ft | 457 kts | 180° |
| 2026-05-03 20:53 | 5.51130 | -79.65680 | 36855 ft | 458 kts | 180° |
| 2026-05-03 20:53 | 5.44731 | -79.65859 | 36856 ft | 459 kts | 180° |
| 2026-05-03 20:54 | 5.38355 | -79.66039 | 36854 ft | 460 kts | 179° |
| 2026-05-03 20:54 | 5.28701 | -79.66310 | 36855 ft | 461 kts | 179° |
| 2026-05-03 20:55 | 5.22311 | -79.66488 | 36855 ft | 461 kts | 179° |
| 2026-05-03 20:55 | 5.15861 | -79.66675 | 36851 ft | 461 kts | 180° |
| 2026-05-03 20:56 | 5.09452 | -79.66956 | 36846 ft | 462 kts | 180° |
| 2026-05-03 20:56 | 5.03046 | -79.67252 | 36838 ft | 462 kts | 180° |
| 2026-05-03 20:57 | 4.96609 | -79.67545 | 36833 ft | 463 kts | 180° |
| 2026-05-03 20:57 | 4.90134 | -79.67836 | 36831 ft | 464 kts | 180° |
| 2026-05-03 20:58 | 4.83709 | -79.68124 | 36838 ft | 464 kts | 180° |
| 2026-05-03 20:58 | 4.77223 | -79.68413 | 36849 ft | 464 kts | 180° |
| 2026-05-03 20:59 | 4.70751 | -79.68703 | 36850 ft | 464 kts | 180° |
| 2026-05-03 20:59 | 4.64285 | -79.68991 | 36848 ft | 464 kts | 180° |
| 2026-05-03 21:00 | 4.58911 | -79.69229 | 36852 ft | 464 kts | 180° |
| 2026-05-03 21:00 | 4.51347 | -79.69567 | 36854 ft | 465 kts | 180° |
| 2026-05-03 21:01 | 4.44877 | -79.69855 | 36851 ft | 465 kts | 180° |
| 2026-05-03 21:01 | 4.38414 | -79.70144 | 36851 ft | 465 kts | 180° |
| 2026-05-03 21:02 | 4.31926 | -79.70432 | 36851 ft | 466 kts | 180° |
| 2026-05-03 21:02 | 4.25428 | -79.70721 | 36853 ft | 465 kts | 180° |
| 2026-05-03 21:03 | 4.18961 | -79.71008 | 36852 ft | 465 kts | 180° |
| 2026-05-03 21:03 | 4.12448 | -79.71300 | 36854 ft | 465 kts | 180° |
| 2026-05-03 21:04 | 4.05979 | -79.71587 | 36851 ft | 465 kts | 180° |
| 2026-05-03 21:04 | 3.99504 | -79.71877 | 36852 ft | 465 kts | 180° |
| 2026-05-03 21:05 | 3.93032 | -79.72164 | 36855 ft | 465 kts | 181° |
| 2026-05-03 21:05 | 3.86562 | -79.72452 | 36853 ft | 464 kts | 180° |
| 2026-05-03 21:06 | 3.80047 | -79.72742 | 36854 ft | 464 kts | 180° |
| 2026-05-03 21:06 | 3.73546 | -79.73032 | 36857 ft | 464 kts | 180° |
| 2026-05-03 21:07 | 3.67093 | -79.73317 | 36855 ft | 464 kts | 180° |
| 2026-05-03 21:07 | 3.60612 | -79.73604 | 37185 ft | 466 kts | 180° |
| 2026-05-03 21:08 | 3.57390 | -79.73749 | 37569 ft | 464 kts | 180° |
| 2026-05-03 21:08 | 3.54132 | -79.73894 | 37852 ft | 463 kts | 180° |
| 2026-05-03 21:08 | 3.47698 | -79.74181 | 37854 ft | 462 kts | 180° |
| 2026-05-03 21:09 | 3.41265 | -79.74464 | 37856 ft | 462 kts | 180° |
| 2026-05-03 21:09 | 3.34837 | -79.74749 | 37855 ft | 462 kts | 180° |
| 2026-05-03 21:10 | 3.28403 | -79.75036 | 37856 ft | 461 kts | 180° |
| 2026-05-03 21:10 | 3.21944 | -79.75323 | 37857 ft | 461 kts | 180° |
| 2026-05-03 21:11 | 3.15527 | -79.75609 | 37855 ft | 461 kts | 180° |
| 2026-05-03 21:11 | 3.09124 | -79.75893 | 37857 ft | 460 kts | 180° |
| 2026-05-03 21:12 | 3.02731 | -79.76178 | 37854 ft | 460 kts | 180° |
| 2026-05-03 21:12 | 2.96307 | -79.76463 | 37855 ft | 459 kts | 180° |
| 2026-05-03 21:13 | 2.89917 | -79.76747 | 37855 ft | 459 kts | 180° |
| 2026-05-03 21:13 | 2.83551 | -79.77029 | 37853 ft | 459 kts | 180° |
| 2026-05-03 21:14 | 2.77125 | -79.77316 | 37852 ft | 459 kts | 180° |
| 2026-05-03 21:14 | 2.70763 | -79.77599 | 37856 ft | 458 kts | 180° |
| 2026-05-03 21:15 | 2.64351 | -79.77884 | 37849 ft | 458 kts | 180° |
| 2026-05-03 21:15 | 2.57969 | -79.78167 | 37847 ft | 458 kts | 180° |
| 2026-05-03 21:16 | 2.51613 | -79.78450 | 37842 ft | 458 kts | 180° |
| 2026-05-03 21:16 | 2.45222 | -79.78735 | 37835 ft | 458 kts | 180° |
| 2026-05-03 21:17 | 2.38818 | -79.79018 | 37831 ft | 458 kts | 180° |
| 2026-05-03 21:17 | 2.32457 | -79.79298 | 37832 ft | 458 kts | 180° |
| 2026-05-03 21:18 | 2.26094 | -79.79582 | 37835 ft | 457 kts | 180° |
| 2026-05-03 21:18 | 2.19700 | -79.79866 | 37835 ft | 457 kts | 180° |
| 2026-05-03 21:19 | 2.13327 | -79.80150 | 37840 ft | 457 kts | 180° |
| 2026-05-03 21:19 | 2.06983 | -79.80431 | 37847 ft | 457 kts | 180° |
| 2026-05-03 21:20 | 2.00618 | -79.80713 | 37850 ft | 457 kts | 180° |
| 2026-05-03 21:20 | 1.94231 | -79.80995 | 37851 ft | 457 kts | 180° |
| 2026-05-03 21:21 | 1.87868 | -79.81278 | 37852 ft | 456 kts | 180° |
| 2026-05-03 21:21 | 1.81486 | -79.81562 | 37851 ft | 457 kts | 180° |
| 2026-05-03 21:22 | 1.75151 | -79.81843 | 37851 ft | 456 kts | 180° |
| 2026-05-03 21:22 | 1.68789 | -79.82126 | 37853 ft | 456 kts | 180° |
| 2026-05-03 21:23 | 1.62444 | -79.82407 | 37852 ft | 456 kts | 180° |
| 2026-05-03 21:23 | 1.56059 | -79.82689 | 37853 ft | 457 kts | 180° |
| 2026-05-03 21:24 | 1.49697 | -79.82972 | 37852 ft | 457 kts | 180° |
| 2026-05-03 21:24 | 1.43324 | -79.83254 | 37852 ft | 458 kts | 180° |
| 2026-05-03 21:25 | 1.36964 | -79.83422 | 37852 ft | 456 kts | 178° |
| 2026-05-03 21:25 | 1.30587 | -79.83459 | 37851 ft | 456 kts | 178° |
| 2026-05-03 21:26 | 1.24252 | -79.83504 | 37852 ft | 456 kts | 178° |
| 2026-05-03 21:26 | 1.18189 | -79.83555 | 37854 ft | 456 kts | 178° |
| 2026-05-03 21:27 | 1.12392 | -79.83607 | 37854 ft | 456 kts | 178° |
| 2026-05-03 21:27 | 1.06666 | -79.83659 | 37855 ft | 457 kts | 178° |
| 2026-05-03 21:28 | 1.01040 | -79.83711 | 37858 ft | 457 kts | 178° |
| 2026-05-03 21:28 | 0.95421 | -79.83764 | 37859 ft | 456 kts | 178° |
| 2026-05-03 21:29 | 0.89802 | -79.83817 | 37865 ft | 456 kts | 178° |
| 2026-05-03 21:29 | 0.84111 | -79.83872 | 37871 ft | 456 kts | 178° |
| 2026-05-03 21:30 | 0.78478 | -79.83925 | 37876 ft | 456 kts | 178° |
| 2026-05-03 21:30 | 0.72901 | -79.83976 | 37882 ft | 456 kts | 178° |
| 2026-05-03 21:31 | 0.67201 | -79.84029 | 37888 ft | 457 kts | 178° |
| 2026-05-03 21:31 | 0.61561 | -79.84083 | 37893 ft | 457 kts | 178° |
| 2026-05-03 21:32 | 0.55941 | -79.84136 | 37895 ft | 457 kts | 178° |
| 2026-05-03 21:32 | 0.50347 | -79.84188 | 37899 ft | 457 kts | 178° |
| 2026-05-03 21:33 | 0.44699 | -79.84243 | 37903 ft | 457 kts | 178° |
| 2026-05-03 21:33 | 0.38985 | -79.84296 | 37899 ft | 457 kts | 178° |
| 2026-05-03 21:34 | 0.33296 | -79.84352 | 37893 ft | 457 kts | 178° |
| 2026-05-03 21:34 | 0.27555 | -79.84405 | 37886 ft | 457 kts | 178° |
| 2026-05-03 21:35 | 0.21841 | -79.84460 | 37886 ft | 457 kts | 178° |
| 2026-05-03 21:35 | 0.16104 | -79.84513 | 37887 ft | 457 kts | 178° |
| 2026-05-03 21:36 | 0.10371 | -79.84566 | 37888 ft | 457 kts | 178° |
| 2026-05-03 21:36 | 0.04700 | -79.84618 | 37892 ft | 457 kts | 178° |
| 2026-05-03 21:37 | -0.00992 | -79.84675 | 37895 ft | 458 kts | 178° |
| 2026-05-03 21:37 | -0.06774 | -79.84729 | 37903 ft | 458 kts | 178° |
| 2026-05-03 21:38 | -0.12495 | -79.84782 | 37894 ft | 458 kts | 178° |
| 2026-05-03 21:38 | -0.18228 | -79.84838 | 37898 ft | 457 kts | 178° |
| 2026-05-03 21:39 | -0.23974 | -79.84892 | 37903 ft | 457 kts | 178° |
| 2026-05-03 21:39 | -0.29735 | -79.84947 | 37903 ft | 457 kts | 178° |
| 2026-05-03 21:40 | -0.35450 | -79.84998 | 37900 ft | 457 kts | 179° |
| 2026-05-03 21:40 | -0.41168 | -79.85053 | 37911 ft | 458 kts | 178° |
| 2026-05-03 21:41 | -0.46906 | -79.85106 | 37914 ft | 458 kts | 179° |
| 2026-05-03 21:41 | -0.52602 | -79.85160 | 37914 ft | 458 kts | 179° |
| 2026-05-03 21:42 | -0.58316 | -79.85216 | 37904 ft | 457 kts | 179° |
| 2026-05-03 21:42 | -0.64004 | -79.85270 | 37913 ft | 456 kts | 179° |
| 2026-05-03 21:43 | -0.69663 | -79.85324 | 37901 ft | 456 kts | 179° |
| 2026-05-03 21:43 | -0.75271 | -79.85378 | 37903 ft | 456 kts | 179° |
| 2026-05-03 21:44 | -0.80890 | -79.85430 | 37894 ft | 457 kts | 179° |
| 2026-05-03 21:44 | -0.86458 | -79.85482 | 37898 ft | 457 kts | 179° |
| 2026-05-03 21:45 | -0.92068 | -79.85534 | 37894 ft | 457 kts | 179° |
| 2026-05-03 21:45 | -0.97682 | -79.85588 | 37892 ft | 456 kts | 179° |
| 2026-05-03 21:46 | -1.03299 | -79.85641 | 37890 ft | 457 kts | 179° |
| 2026-05-03 21:46 | -1.08972 | -79.85696 | 37902 ft | 457 kts | 179° |
| 2026-05-03 21:47 | -1.14576 | -79.85749 | 37893 ft | 458 kts | 179° |
| 2026-05-03 21:47 | -1.20215 | -79.85803 | 37879 ft | 457 kts | 179° |
| 2026-05-03 21:48 | -1.25793 | -79.85856 | 37870 ft | 457 kts | 179° |
| 2026-05-03 21:48 | -1.31421 | -79.85909 | 37875 ft | 457 kts | 179° |
| 2026-05-03 21:49 | -1.37078 | -79.85961 | 37870 ft | 457 kts | 179° |
| 2026-05-03 21:49 | -1.42644 | -79.86015 | 37866 ft | 457 kts | 179° |
| 2026-05-03 21:50 | -1.48312 | -79.86069 | 37870 ft | 457 kts | 179° |
| 2026-05-03 21:50 | -1.53946 | -79.86122 | 37865 ft | 457 kts | 179° |
| 2026-05-03 21:51 | -1.59535 | -79.86175 | 37860 ft | 457 kts | 179° |
| 2026-05-03 21:51 | -1.65173 | -79.86229 | 37870 ft | 458 kts | 179° |
| 2026-05-03 21:52 | -1.70839 | -79.86282 | 37864 ft | 458 kts | 179° |
| 2026-05-03 21:52 | -1.76435 | -79.86337 | 37860 ft | 459 kts | 179° |
| 2026-05-03 21:53 | -1.82059 | -79.86391 | 37867 ft | 458 kts | 179° |
| 2026-05-03 21:53 | -1.87711 | -79.86443 | 37870 ft | 457 kts | 179° |
| 2026-05-03 21:54 | -1.93313 | -79.86497 | 37871 ft | 457 kts | 179° |
| 2026-05-03 21:54 | -1.98968 | -79.86550 | 37868 ft | 457 kts | 179° |
| 2026-05-03 21:55 | -2.04732 | -79.86603 | 37868 ft | 457 kts | 179° |
| 2026-05-03 21:55 | -2.10548 | -79.86637 | 37867 ft | 457 kts | 178° |
| 2026-05-03 21:56 | -2.16311 | -79.86253 | 37879 ft | 456 kts | 172° |
| 2026-05-03 21:56 | -2.22021 | -79.85533 | 37876 ft | 456 kts | 171° |
| 2026-05-03 21:57 | -2.27789 | -79.84782 | 37876 ft | 457 kts | 171° |
| 2026-05-03 21:57 | -2.33471 | -79.84049 | 37878 ft | 457 kts | 171° |
| 2026-05-03 21:58 | -2.39065 | -79.83331 | 37876 ft | 457 kts | 171° |
| 2026-05-03 21:58 | -2.44685 | -79.82611 | 37870 ft | 457 kts | 171° |
| 2026-05-03 21:59 | -2.50198 | -79.81903 | 37876 ft | 458 kts | 171° |
| 2026-05-03 21:59 | -2.55771 | -79.81187 | 37890 ft | 458 kts | 171° |
| 2026-05-03 22:00 | -2.61283 | -79.80481 | 37890 ft | 458 kts | 171° |
| 2026-05-03 22:00 | -2.66867 | -79.79764 | 37888 ft | 458 kts | 171° |
| 2026-05-03 22:01 | -2.72415 | -79.79053 | 37885 ft | 458 kts | 171° |
| 2026-05-03 22:01 | -2.77970 | -79.78339 | 37909 ft | 458 kts | 171° |
| 2026-05-03 22:02 | -2.83505 | -79.77631 | 37919 ft | 458 kts | 171° |
| 2026-05-03 22:02 | -2.89040 | -79.76926 | 37901 ft | 458 kts | 171° |
| 2026-05-03 22:03 | -2.94644 | -79.76209 | 37898 ft | 458 kts | 171° |
| 2026-05-03 22:03 | -3.00220 | -79.75494 | 37915 ft | 458 kts | 171° |
| 2026-05-03 22:04 | -3.05781 | -79.74784 | 37925 ft | 457 kts | 171° |
| 2026-05-03 22:04 | -3.11353 | -79.74070 | 37947 ft | 458 kts | 171° |
| 2026-05-03 22:05 | -3.16932 | -79.73355 | 37979 ft | 459 kts | 171° |
| 2026-05-03 22:05 | -3.22538 | -79.72637 | 37989 ft | 459 kts | 171° |
| 2026-05-03 22:06 | -3.28137 | -79.71919 | 37998 ft | 458 kts | 171° |
| 2026-05-03 22:06 | -3.33749 | -79.71201 | 38025 ft | 458 kts | 171° |
| 2026-05-03 22:07 | -3.39384 | -79.70480 | 38066 ft | 458 kts | 171° |
| 2026-05-03 22:07 | -3.45024 | -79.69755 | 38114 ft | 457 kts | 171° |
| 2026-05-03 22:08 | -3.50581 | -79.69044 | 38136 ft | 457 kts | 171° |
| 2026-05-03 22:08 | -3.56174 | -79.68327 | 38163 ft | 456 kts | 171° |
| 2026-05-03 22:09 | -3.61782 | -79.67609 | 38148 ft | 456 kts | 171° |
| 2026-05-03 22:10 | -3.70113 | -79.66539 | 38148 ft | 456 kts | 171° |
| 2026-05-03 22:10 | -3.75643 | -79.65829 | 38153 ft | 456 kts | 171° |
| 2026-05-03 22:11 | -3.81213 | -79.65117 | 38143 ft | 456 kts | 171° |
| 2026-05-03 22:11 | -3.86738 | -79.64407 | 38144 ft | 456 kts | 171° |
| 2026-05-03 22:12 | -3.92273 | -79.63697 | 38152 ft | 455 kts | 171° |
| 2026-05-03 22:12 | -3.97907 | -79.62976 | 38163 ft | 456 kts | 171° |
| 2026-05-03 22:13 | -4.03435 | -79.62266 | 38163 ft | 455 kts | 171° |
| 2026-05-03 22:13 | -4.08960 | -79.61557 | 38173 ft | 455 kts | 170° |
| 2026-05-03 22:14 | -4.14480 | -79.60847 | 38188 ft | 454 kts | 171° |
| 2026-05-03 22:14 | -4.20058 | -79.60129 | 38192 ft | 454 kts | 171° |
| 2026-05-03 22:15 | -4.25579 | -79.59422 | 38215 ft | 454 kts | 171° |
| 2026-05-03 22:15 | -4.31143 | -79.58707 | 38220 ft | 454 kts | 171° |
| 2026-05-03 22:16 | -4.36682 | -79.57997 | 38211 ft | 454 kts | 171° |
| 2026-05-03 22:16 | -4.42214 | -79.57285 | 38204 ft | 454 kts | 170° |
| 2026-05-03 22:17 | -4.47714 | -79.56577 | 38191 ft | 454 kts | 171° |
| 2026-05-03 22:17 | -4.53256 | -79.55869 | 38177 ft | 454 kts | 171° |
| 2026-05-03 22:18 | -4.58788 | -79.55182 | 38210 ft | 453 kts | 171° |
| 2026-05-03 22:18 | -4.64310 | -79.54497 | 38237 ft | 453 kts | 171° |
| 2026-05-03 22:19 | -4.69858 | -79.53805 | 38284 ft | 452 kts | 171° |
| 2026-05-03 22:19 | -4.75374 | -79.53117 | 38337 ft | 452 kts | 171° |
| 2026-05-03 22:20 | -4.80885 | -79.52428 | 38371 ft | 451 kts | 171° |
| 2026-05-03 22:20 | -4.86378 | -79.51743 | 38396 ft | 451 kts | 171° |
| 2026-05-03 22:21 | -4.91906 | -79.51054 | 38414 ft | 451 kts | 171° |
| 2026-05-03 22:21 | -4.97421 | -79.50364 | 38429 ft | 450 kts | 171° |
| 2026-05-03 22:22 | -5.02952 | -79.49672 | 38435 ft | 450 kts | 171° |
| 2026-05-03 22:22 | -5.08425 | -79.48990 | 38410 ft | 451 kts | 171° |
| 2026-05-03 22:23 | -5.13890 | -79.48307 | 38378 ft | 451 kts | 171° |
| 2026-05-03 22:23 | -5.19372 | -79.47621 | 38358 ft | 451 kts | 171° |
| 2026-05-03 22:24 | -5.24833 | -79.46938 | 38331 ft | 452 kts | 171° |
| 2026-05-03 22:24 | -5.30328 | -79.46250 | 38323 ft | 452 kts | 170° |
| 2026-05-03 22:25 | -5.35820 | -79.45563 | 38328 ft | 452 kts | 171° |
| 2026-05-03 22:25 | -5.41282 | -79.44880 | 38337 ft | 453 kts | 170° |
| 2026-05-03 22:26 | -5.46782 | -79.44192 | 38359 ft | 453 kts | 170° |
| 2026-05-03 22:26 | -5.52268 | -79.43504 | 38367 ft | 453 kts | 170° |
| 2026-05-03 22:27 | -5.57756 | -79.42818 | 38367 ft | 453 kts | 171° |
| 2026-05-03 22:27 | -5.63227 | -79.42133 | 38357 ft | 453 kts | 170° |
| 2026-05-03 22:28 | -5.68708 | -79.41447 | 38339 ft | 454 kts | 171° |
| 2026-05-03 22:28 | -5.74240 | -79.40753 | 38321 ft | 454 kts | 171° |
| 2026-05-03 22:29 | -5.79763 | -79.40061 | 38307 ft | 455 kts | 171° |
| 2026-05-03 22:29 | -5.85285 | -79.39369 | 38274 ft | 455 kts | 171° |
| 2026-05-03 22:30 | -5.90842 | -79.38673 | 38255 ft | 456 kts | 171° |
| 2026-05-03 22:30 | -5.96375 | -79.37979 | 38237 ft | 456 kts | 171° |
| 2026-05-03 22:31 | -6.01963 | -79.37280 | 38221 ft | 456 kts | 171° |
| 2026-05-03 22:31 | -6.07571 | -79.36577 | 38241 ft | 456 kts | 171° |
| 2026-05-03 22:32 | -6.13134 | -79.35880 | 38290 ft | 457 kts | 171° |
| 2026-05-03 22:32 | -6.18708 | -79.35179 | 38317 ft | 457 kts | 171° |
| 2026-05-03 22:33 | -6.24263 | -79.34483 | 38345 ft | 456 kts | 170° |
| 2026-05-03 22:33 | -6.29850 | -79.33780 | 38352 ft | 456 kts | 171° |
| 2026-05-03 22:34 | -6.35400 | -79.33084 | 38316 ft | 456 kts | 171° |
| 2026-05-03 22:34 | -6.41028 | -79.32377 | 38274 ft | 456 kts | 171° |
| 2026-05-03 22:35 | -6.46631 | -79.31673 | 38215 ft | 456 kts | 171° |
| 2026-05-03 22:35 | -6.52211 | -79.30973 | 38179 ft | 457 kts | 171° |
| 2026-05-03 22:36 | -6.57817 | -79.30268 | 38162 ft | 457 kts | 171° |
| 2026-05-03 22:36 | -6.63465 | -79.29559 | 38166 ft | 457 kts | 171° |
| 2026-05-03 22:37 | -6.69072 | -79.28854 | 38140 ft | 457 kts | 171° |
| 2026-05-03 22:37 | -6.74636 | -79.28155 | 38115 ft | 457 kts | 171° |
| 2026-05-03 22:38 | -6.80264 | -79.27446 | 38099 ft | 457 kts | 171° |
| 2026-05-03 22:38 | -6.85855 | -79.26743 | 38107 ft | 457 kts | 171° |
| 2026-05-03 22:39 | -6.91482 | -79.26035 | 38138 ft | 457 kts | 171° |
| 2026-05-03 22:39 | -6.97059 | -79.25333 | 38127 ft | 456 kts | 171° |
| 2026-05-03 22:40 | -7.02687 | -79.24625 | 38108 ft | 456 kts | 171° |
| 2026-05-03 22:40 | -7.08289 | -79.23919 | 38113 ft | 456 kts | 171° |
| 2026-05-03 22:41 | -7.13916 | -79.23211 | 38110 ft | 456 kts | 171° |
| 2026-05-03 22:41 | -7.19500 | -79.22507 | 38089 ft | 456 kts | 171° |
| 2026-05-03 22:42 | -7.25075 | -79.21804 | 38082 ft | 456 kts | 171° |
| 2026-05-03 22:42 | -7.30654 | -79.21101 | 38078 ft | 456 kts | 171° |
| 2026-05-03 22:43 | -7.36158 | -79.20407 | 38085 ft | 456 kts | 171° |
| 2026-05-03 22:43 | -7.41670 | -79.19713 | 38076 ft | 456 kts | 171° |
| 2026-05-03 22:44 | -7.47238 | -79.19010 | 38079 ft | 456 kts | 171° |
| 2026-05-03 22:44 | -7.52801 | -79.18306 | 38060 ft | 456 kts | 171° |
| 2026-05-03 22:45 | -7.58345 | -79.17607 | 38045 ft | 456 kts | 171° |
| 2026-05-03 22:45 | -7.63931 | -79.16902 | 38024 ft | 456 kts | 171° |
| 2026-05-03 22:46 | -7.69499 | -79.16198 | 38006 ft | 456 kts | 171° |
| 2026-05-03 22:46 | -7.75069 | -79.15495 | 37979 ft | 456 kts | 171° |
| 2026-05-03 22:47 | -7.80712 | -79.14783 | 37975 ft | 456 kts | 171° |
| 2026-05-03 22:47 | -7.86619 | -79.14037 | 37958 ft | 456 kts | 171° |
| 2026-05-03 22:48 | -7.92945 | -79.13238 | 37947 ft | 456 kts | 171° |
| 2026-05-03 22:48 | -7.99274 | -79.12437 | 37951 ft | 456 kts | 171° |
| 2026-05-03 22:49 | -8.05503 | -79.11227 | 37949 ft | 455 kts | 164° |
| 2026-05-03 22:49 | -8.11507 | -79.09270 | 37945 ft | 453 kts | 157° |
| 2026-05-03 22:50 | -8.17187 | -79.06607 | 37940 ft | 451 kts | 150° |
| 2026-05-03 22:50 | -8.22691 | -79.03548 | 37938 ft | 452 kts | 149° |
| 2026-05-03 22:51 | -8.28217 | -79.00457 | 37932 ft | 452 kts | 149° |
| 2026-05-03 22:51 | -8.33719 | -78.97391 | 37937 ft | 452 kts | 150° |
| 2026-05-03 22:52 | -8.39247 | -78.94314 | 37945 ft | 452 kts | 149° |
| 2026-05-03 22:52 | -8.44752 | -78.91251 | 37956 ft | 452 kts | 149° |
| 2026-05-03 22:53 | -8.50278 | -78.88174 | 37952 ft | 452 kts | 149° |
| 2026-05-03 22:53 | -8.55779 | -78.85110 | 37958 ft | 453 kts | 149° |
| 2026-05-03 22:54 | -8.61304 | -78.82032 | 37971 ft | 453 kts | 149° |
| 2026-05-03 22:54 | -8.66845 | -78.78945 | 37981 ft | 453 kts | 149° |
| 2026-05-03 22:55 | -8.72408 | -78.75845 | 37980 ft | 452 kts | 149° |
| 2026-05-03 22:55 | -8.77925 | -78.72768 | 37972 ft | 452 kts | 149° |
| 2026-05-03 22:56 | -8.83483 | -78.69668 | 37976 ft | 452 kts | 149° |
| 2026-05-03 22:56 | -8.88995 | -78.66591 | 37975 ft | 453 kts | 149° |
| 2026-05-03 22:57 | -8.94564 | -78.63482 | 37987 ft | 454 kts | 149° |
| 2026-05-03 22:57 | -9.00152 | -78.60360 | 38004 ft | 454 kts | 149° |
| 2026-05-03 22:58 | -9.05673 | -78.57274 | 38001 ft | 454 kts | 149° |
| 2026-05-03 22:58 | -9.11211 | -78.54177 | 37989 ft | 454 kts | 149° |
| 2026-05-03 22:59 | -9.16772 | -78.51206 | 37991 ft | 456 kts | 152° |
| 2026-05-03 22:59 | -9.22545 | -78.48402 | 37988 ft | 458 kts | 153° |
| 2026-05-03 23:00 | -9.28346 | -78.45592 | 37980 ft | 458 kts | 153° |
| 2026-05-03 23:00 | -9.34154 | -78.42775 | 37981 ft | 459 kts | 153° |
| 2026-05-03 23:01 | -9.40004 | -78.39932 | 37992 ft | 459 kts | 153° |
| 2026-05-03 23:01 | -9.45810 | -78.37106 | 37987 ft | 460 kts | 153° |
| 2026-05-03 23:02 | -9.51667 | -78.34256 | 37971 ft | 460 kts | 153° |
| 2026-05-03 23:02 | -9.57532 | -78.31401 | 37967 ft | 461 kts | 153° |
| 2026-05-03 23:03 | -9.63433 | -78.28527 | 37968 ft | 460 kts | 153° |
| 2026-05-03 23:03 | -9.69280 | -78.25678 | 37971 ft | 461 kts | 153° |
| 2026-05-03 23:04 | -9.74995 | -78.22891 | 37959 ft | 461 kts | 153° |
| 2026-05-03 23:04 | -9.80634 | -78.20142 | 37968 ft | 462 kts | 153° |
| 2026-05-03 23:05 | -9.86154 | -78.17448 | 37975 ft | 463 kts | 153° |
| 2026-05-03 23:05 | -9.91726 | -78.14729 | 37968 ft | 463 kts | 153° |
| 2026-05-03 23:06 | -9.97192 | -78.12060 | 37949 ft | 463 kts | 153° |
| 2026-05-03 23:06 | -10.02698 | -78.09370 | 37938 ft | 463 kts | 153° |
| 2026-05-03 23:07 | -10.08203 | -78.06680 | 37943 ft | 463 kts | 153° |
| 2026-05-03 23:07 | -10.13929 | -78.03878 | 37675 ft | 463 kts | 153° |
| 2026-05-03 23:07 | -10.16780 | -78.02484 | 37390 ft | 461 kts | 153° |
| 2026-05-03 23:08 | -10.19572 | -78.01118 | 37111 ft | 458 kts | 153° |
| 2026-05-03 23:08 | -10.22482 | -77.99699 | 36817 ft | 456 kts | 153° |
| 2026-05-03 23:08 | -10.25358 | -77.98299 | 36526 ft | 455 kts | 153° |
| 2026-05-03 23:08 | -10.28271 | -77.96880 | 36155 ft | 456 kts | 153° |
| 2026-05-03 23:09 | -10.31197 | -77.95451 | 35632 ft | 457 kts | 153° |
| 2026-05-03 23:09 | -10.34082 | -77.94044 | 34976 ft | 458 kts | 153° |
| 2026-05-03 23:09 | -10.36994 | -77.92621 | 34225 ft | 458 kts | 153° |
| 2026-05-03 23:09 | -10.39888 | -77.91207 | 33465 ft | 459 kts | 152° |
| 2026-05-03 23:10 | -10.42846 | -77.89762 | 32659 ft | 459 kts | 152° |
| 2026-05-03 23:10 | -10.45760 | -77.88337 | 31897 ft | 461 kts | 152° |
| 2026-05-03 23:10 | -10.48728 | -77.86884 | 31074 ft | 463 kts | 152° |
| 2026-05-03 23:10 | -10.51701 | -77.85427 | 30265 ft | 465 kts | 152° |
| 2026-05-03 23:11 | -10.54655 | -77.83983 | 29452 ft | 466 kts | 152° |
| 2026-05-03 23:11 | -10.57637 | -77.82526 | 28589 ft | 468 kts | 152° |
| 2026-05-03 23:11 | -10.60580 | -77.81087 | 27709 ft | 470 kts | 152° |
| 2026-05-03 23:11 | -10.63560 | -77.79631 | 26775 ft | 472 kts | 152° |
| 2026-05-03 23:12 | -10.66550 | -77.78169 | 25813 ft | 475 kts | 152° |
| 2026-05-03 23:12 | -10.69519 | -77.76717 | 24857 ft | 476 kts | 152° |
| 2026-05-03 23:12 | -10.72429 | -77.75293 | 24208 ft | 471 kts | 152° |
| 2026-05-03 23:12 | -10.75428 | -77.73826 | 23542 ft | 465 kts | 152° |
| 2026-05-03 23:13 | -10.78395 | -77.72373 | 22874 ft | 460 kts | 152° |
| 2026-05-03 23:13 | -10.81288 | -77.70956 | 22198 ft | 457 kts | 152° |
| 2026-05-03 23:13 | -10.84197 | -77.69530 | 21549 ft | 452 kts | 152° |
| 2026-05-03 23:13 | -10.87077 | -77.68116 | 20885 ft | 448 kts | 152° |
| 2026-05-03 23:14 | -10.89950 | -77.66707 | 20236 ft | 443 kts | 153° |
| 2026-05-03 23:14 | -10.92749 | -77.65334 | 19575 ft | 438 kts | 153° |
| 2026-05-03 23:14 | -10.95563 | -77.63954 | 18923 ft | 433 kts | 153° |
| 2026-05-03 23:14 | -10.98325 | -77.62599 | 18303 ft | 428 kts | 152° |
| 2026-05-03 23:15 | -11.01078 | -77.61248 | 17682 ft | 424 kts | 152° |
| 2026-05-03 23:15 | -11.03778 | -77.59922 | 17018 ft | 421 kts | 152° |
| 2026-05-03 23:15 | -11.06464 | -77.58601 | 16328 ft | 415 kts | 153° |
| 2026-05-03 23:15 | -11.08958 | -77.57375 | 15901 ft | 404 kts | 153° |
| 2026-05-03 23:16 | -11.11393 | -77.56180 | 15664 ft | 382 kts | 153° |
| 2026-05-03 23:16 | -11.13747 | -77.55025 | 15389 ft | 353 kts | 153° |
| 2026-05-03 23:16 | -11.15846 | -77.53994 | 15167 ft | 329 kts | 152° |
| 2026-05-03 23:16 | -11.17849 | -77.53009 | 14911 ft | 316 kts | 152° |
| 2026-05-03 23:17 | -11.19807 | -77.52045 | 14756 ft | 306 kts | 152° |
| 2026-05-03 23:17 | -11.21714 | -77.51105 | 14541 ft | 300 kts | 152° |
| 2026-05-03 23:17 | -11.23579 | -77.50187 | 14357 ft | 296 kts | 152° |
| 2026-05-03 23:17 | -11.25476 | -77.49260 | 14084 ft | 296 kts | 153° |
| 2026-05-03 23:18 | -11.27385 | -77.48358 | 13623 ft | 297 kts | 153° |
| 2026-05-03 23:18 | -11.29234 | -77.47493 | 13265 ft | 295 kts | 154° |
| 2026-05-03 23:18 | -11.31130 | -77.46606 | 12921 ft | 294 kts | 154° |
| 2026-05-03 23:18 | -11.32983 | -77.45736 | 12562 ft | 295 kts | 154° |
| 2026-05-03 23:19 | -11.34842 | -77.44862 | 12192 ft | 295 kts | 154° |
| 2026-05-03 23:19 | -11.36718 | -77.43980 | 11783 ft | 295 kts | 154° |
| 2026-05-03 23:19 | -11.38598 | -77.43096 | 11438 ft | 295 kts | 154° |
| 2026-05-03 23:19 | -11.40460 | -77.42219 | 11040 ft | 296 kts | 154° |
| 2026-05-03 23:20 | -11.42323 | -77.41341 | 10622 ft | 297 kts | 154° |
| 2026-05-03 23:20 | -11.44216 | -77.40449 | 10169 ft | 296 kts | 154° |
| 2026-05-03 23:20 | -11.46082 | -77.39569 | 9822 ft | 294 kts | 154° |
| 2026-05-03 23:20 | -11.47931 | -77.38697 | 9416 ft | 293 kts | 154° |
| 2026-05-03 23:21 | -11.49782 | -77.37824 | 9042 ft | 292 kts | 154° |
| 2026-05-03 23:21 | -11.51631 | -77.36952 | 8612 ft | 290 kts | 154° |
| 2026-05-03 23:21 | -11.53461 | -77.36089 | 8297 ft | 287 kts | 155° |
| 2026-05-03 23:21 | -11.55274 | -77.35235 | 7949 ft | 286 kts | 155° |
| 2026-05-03 23:22 | -11.58872 | -77.33538 | 7182 ft | 283 kts | 154° |
| 2026-05-03 23:22 | -11.60640 | -77.32704 | 6934 ft | 275 kts | 154° |
| 2026-05-03 23:22 | -11.62350 | -77.31898 | 6842 ft | 264 kts | 154° |
| 2026-05-03 23:23 | -11.63994 | -77.31122 | 6632 ft | 260 kts | 154° |
| 2026-05-03 23:23 | -11.65633 | -77.30348 | 6285 ft | 261 kts | 154° |
| 2026-05-03 23:23 | -11.67283 | -77.29569 | 5934 ft | 260 kts | 154° |
| 2026-05-03 23:23 | -11.68917 | -77.28797 | 5601 ft | 258 kts | 154° |
| 2026-05-03 23:24 | -11.70561 | -77.28020 | 5283 ft | 255 kts | 154° |
| 2026-05-03 23:24 | -11.72169 | -77.27261 | 4955 ft | 253 kts | 154° |
| 2026-05-03 23:24 | -11.73760 | -77.26509 | 4684 ft | 250 kts | 154° |
| 2026-05-03 23:24 | -11.75339 | -77.25762 | 4391 ft | 249 kts | 154° |
| 2026-05-03 23:25 | -11.76902 | -77.25022 | 4152 ft | 244 kts | 154° |
| 2026-05-03 23:25 | -11.78398 | -77.24316 | 4036 ft | 232 kts | 154° |
| 2026-05-03 23:25 | -11.79832 | -77.23620 | 3984 ft | 220 kts | 151° |
| 2026-05-03 23:25 | -11.81153 | -77.22803 | 3883 ft | 221 kts | 145° |
| 2026-05-03 23:26 | -11.82429 | -77.21907 | 3594 ft | 222 kts | 144° |
| 2026-05-03 23:26 | -11.83678 | -77.21012 | 3321 ft | 221 kts | 144° |
| 2026-05-03 23:26 | -11.84924 | -77.20121 | 3218 ft | 210 kts | 144° |
| 2026-05-03 23:26 | -11.86147 | -77.19338 | 3099 ft | 202 kts | 151° |
| 2026-05-03 23:27 | -11.87384 | -77.18707 | 2983 ft | 200 kts | 153° |
| 2026-05-03 23:27 | -11.88629 | -77.18099 | 2847 ft | 194 kts | 153° |
| 2026-05-03 23:27 | -11.89836 | -77.17512 | 2563 ft | 189 kts | 153° |
| 2026-05-03 23:27 | -11.90990 | -77.16948 | 2256 ft | 176 kts | 153° |
| 2026-05-03 23:28 | -11.92058 | -77.16425 | 1995 ft | 163 kts | 153° |
| 2026-05-03 23:28 | -11.93041 | -77.15941 | 1764 ft | 150 kts | 154° |
| 2026-05-03 23:28 | -11.93936 | -77.15501 | 1556 ft | 136 kts | 154° |
| 2026-05-03 23:28 | -11.94755 | -77.15096 | 1363 ft | 126 kts | 154° |
| 2026-05-03 23:29 | -11.95554 | -77.14702 | 1221 ft | 126 kts | 154° |
| 2026-05-03 23:29 | -11.96345 | -77.14312 | 1060 ft | 125 kts | 155° |
| 2026-05-03 23:29 | -11.97125 | -77.13928 | 893 ft | 125 kts | 155° |
| 2026-05-03 23:29 | -11.97910 | -77.13541 | 727 ft | 124 kts | 155° |
| 2026-05-03 23:30 | -11.98694 | -77.13155 | 563 ft | 124 kts | 155° |
| 2026-05-03 23:30 | -11.99475 | -77.12766 | 398 ft | 123 kts | 153° |
| 2026-05-03 23:30 | -12.00244 | -77.12385 | 292 ft | 123 kts | 155° |
| 2026-05-03 23:30 | -12.01017 | -77.12009 | 176 ft | 123 kts | 156° |
| 2026-05-03 23:31 | -12.01773 | -77.11636 | 126 ft | 110 kts | 154° |
| 2026-05-03 23:31 | -12.02352 | -77.11349 | 126 ft | 57 kts | 155° |
| 2026-05-03 23:31 | -12.02605 | -77.11225 | 126 ft | 30 kts | 148° |
| 2026-05-03 23:31 | -12.02761 | -77.11134 | 126 ft | 24 kts | 140° |
| 2026-05-03 23:32 | -12.02847 | -77.11042 | 126 ft | 11 kts | 126° |
| 2026-05-03 23:32 | -12.02889 | -77.10977 | 126 ft | 11 kts | 124° |
| 2026-05-03 23:32 | -12.02935 | -77.10912 | 126 ft | 12 kts | 127° |
| 2026-05-03 23:32 | -12.02989 | -77.10839 | 126 ft | 13 kts | 130° |
| 2026-05-03 23:33 | -12.03068 | -77.10785 | 126 ft | 14 kts | 155° |
| 2026-05-03 23:33 | -12.03161 | -77.10742 | 126 ft | 14 kts | 154° |
| 2026-05-03 23:33 | -12.03255 | -77.10693 | 126 ft | 15 kts | 153° |
| 2026-05-03 23:33 | -12.03354 | -77.10646 | 126 ft | 15 kts | 154° |
| 2026-05-03 23:34 | -12.03454 | -77.10596 | 126 ft | 16 kts | 153° |
| 2026-05-03 23:34 | -12.03556 | -77.10583 | 126 ft | 15 kts | 208° |
| 2026-05-03 23:34 | -12.03599 | -77.10671 | 125 ft | 15 kts | 271° |
| 2026-05-03 23:34 | -12.03550 | -77.10757 | 125 ft | 16 kts | 329° |
| 2026-05-03 23:35 | -12.03438 | -77.10815 | 125 ft | 25 kts | 333° |
| 2026-05-03 23:35 | -12.03259 | -77.10905 | 125 ft | 32 kts | 333° |
| 2026-05-03 23:35 | -12.03038 | -77.11014 | 125 ft | 38 kts | 335° |
| 2026-05-03 23:35 | -12.02788 | -77.11135 | 125 ft | 41 kts | 334° |
| 2026-05-03 23:36 | -12.02553 | -77.11252 | 125 ft | 23 kts | 333° |
| 2026-05-03 23:36 | -12.02547 | -77.11348 | 125 ft | 15 kts | 244° |
| 2026-05-03 23:36 | -12.02605 | -77.11395 | 125 ft | 8 kts | 193° |
| 2026-05-03 23:36 | -12.02647 | -77.11431 | 125 ft | 8 kts | 261° |
| 2026-05-03 23:37 | -12.02654 | -77.11488 | 125 ft | 9 kts | 256° |
| 2026-05-03 23:37 | -12.02682 | -77.11537 | 125 ft | 6 kts | 210° |
| 2026-05-03 23:37 | -12.02714 | -77.11547 | 125 ft | 4 kts | 180° |
| 2026-05-03 23:37 | -12.02735 | -77.11543 | 125 ft | 3 kts | 156° |
| 2026-05-03 23:38 | -12.02755 | -77.11533 | 125 ft | 0 kts | 154° |